Terminal Aerodrome Forecast
Issued by NWS Quad Cities IA IL

Home | Current Version | Previous Version | Text Only | Print | Product List | Glossary On
Versions: 1 2 3 4 5 6 7 8 9 10 11 12 13 14 15 16 17
430
FTUS43 KDVN 202044 AAA
TAFDBQ
TAF AMD
KDBQ 202044Z 2021/2118 06008KT P6SM VCSH OVC035
      TEMPO 2021/2022 5SM -RA BR BKN025
     FM210000 02006KT P6SM SCT025 BKN050
     FM210400 29004KT P6SM BKN080
     FM211400 28010KT P6SM SCT250=

USA.gov is the U.S. government's official web portal to all federal, state and local government web resources and services.